createdAt,value
2022-10-17T05:32:23.115Z,12.60
2022-10-17T05:34:49.799Z,7.88
2022-10-17T05:37:17.199Z,7.47
2022-10-17T05:39:51.386Z,7.03
2022-10-17T05:42:19.482Z,7.15
2022-10-17T05:44:46.977Z,8.75
2022-10-17T05:49:48.633Z,5.95
2022-10-17T05:52:20.136Z,6.70
2022-10-17T05:54:58.562Z,7.47
2022-10-17T05:57:28.320Z,5.60
2022-10-17T05:59:56.113Z,10.13
2022-10-17T06:02:22.772Z,6.88
2022-10-17T06:04:50.329Z,7.32
2022-10-17T06:07:18.925Z,6.00
2022-10-17T06:12:17.014Z,7.45
2022-10-17T06:14:44.302Z,11.30
2022-10-17T06:17:16.083Z,6.25
2022-10-17T06:19:44.875Z,7.97
2022-10-17T06:22:13.334Z,6.85
2022-10-17T06:24:40.398Z,12.15
2022-10-17T06:27:11.007Z,7.10
2022-10-17T06:29:38.439Z,5.70
2022-10-17T06:32:08.658Z,7.17
2022-10-17T06:34:38.234Z,6.82
2022-10-17T06:37:04.699Z,8.60
2022-10-17T06:39:34.411Z,15.05
2022-10-17T06:42:06.583Z,10.07
2022-10-17T06:44:46.227Z,9.82
2022-10-17T06:47:37.542Z,9.63
2022-10-17T06:50:16.353Z,6.93
2022-10-17T06:52:50.943Z,7.38
2022-10-17T06:55:36.015Z,7.57
2022-10-17T06:58:25.029Z,8.68
2022-10-17T07:03:41.386Z,7.05
2022-10-17T07:06:08.332Z,7.93
2022-10-17T07:08:34.892Z,8.13
2022-10-17T07:11:10.149Z,8.88
2022-10-17T07:13:39.185Z,9.07
2022-10-17T07:16:06.876Z,8.98
2022-10-17T07:18:34.871Z,12.82
2022-10-17T07:21:01.504Z,12.27
2022-10-17T07:23:28.043Z,12.90
2022-10-17T07:25:59.445Z,10.95
2022-10-17T07:28:26.071Z,13.30
2022-10-17T07:30:53.791Z,17.00
2022-10-17T07:33:21.095Z,14.85
2022-10-17T07:35:47.621Z,29.08
2022-10-17T07:38:14.113Z,15.88
2022-10-17T07:40:40.641Z,43.95
2022-10-17T07:43:07.126Z,18.83
2022-10-17T07:45:33.658Z,44.00
2022-10-17T07:48:00.380Z,75.28
2022-10-17T07:50:26.942Z,67.40
2022-10-17T07:52:53.437Z,24.05
2022-10-17T07:55:19.927Z,18.73
2022-10-17T07:57:46.466Z,18.08
2022-10-17T08:00:13.125Z,21.20
2022-10-17T08:02:39.843Z,19.95
2022-10-17T08:05:06.673Z,19.05
2022-10-17T08:07:33.107Z,24.75
2022-10-17T08:09:59.692Z,23.90
2022-10-17T08:12:26.308Z,20.00
2022-10-17T08:14:52.786Z,19.02
2022-10-17T08:17:19.243Z,22.17
2022-10-17T08:19:45.687Z,20.70
2022-10-17T08:22:12.165Z,18.00
2022-10-17T08:24:38.626Z,17.67
2022-10-17T08:27:11.353Z,19.65
2022-10-17T08:29:38.485Z,23.20
2022-10-17T08:32:09.570Z,28.03
2022-10-17T08:34:36.398Z,26.30
2022-10-17T08:37:02.947Z,26.10
2022-10-17T08:39:29.597Z,27.10
2022-10-17T08:42:05.918Z,26.65
2022-10-17T08:44:39.760Z,26.00
2022-10-17T08:47:09.950Z,28.70
2022-10-17T08:49:36.395Z,25.45
2022-10-17T08:52:05.344Z,29.15
2022-10-17T08:54:46.111Z,32.10
2022-10-17T08:57:14.340Z,30.45
2022-10-17T08:59:41.204Z,30.15
2022-10-17T09:02:26.359Z,32.42
2022-10-17T09:04:59.024Z,30.67
2022-10-17T09:07:32.230Z,31.23
2022-10-17T09:10:25.305Z,32.67
2022-10-17T09:12:57.578Z,26.27
2022-10-17T09:15:42.797Z,29.20
2022-10-17T09:18:09.217Z,26.23
2022-10-17T09:20:42.643Z,26.35
2022-10-17T09:23:13.337Z,26.27
2022-10-17T09:25:44.258Z,28.10
2022-10-17T09:28:29.604Z,25.65
2022-10-17T09:30:58.938Z,21.92
2022-10-17T09:33:35.434Z,25.02
2022-10-17T09:36:11.696Z,22.17
2022-10-17T09:38:40.414Z,20.60
2022-10-17T09:41:32.006Z,26.83
2022-10-17T09:43:57.130Z,24.38
2022-10-17T09:46:26.650Z,22.20
2022-10-17T09:49:03.677Z,27.77
2022-10-17T09:51:30.678Z,23.63
2022-10-17T09:54:00.975Z,24.35
2022-10-17T09:56:27.434Z,23.95
2022-10-17T09:58:57.226Z,25.73
2022-10-17T10:01:25.136Z,25.33
2022-10-17T10:04:10.510Z,23.40
2022-10-17T10:06:37.276Z,24.45
2022-10-17T10:09:05.534Z,22.05
2022-10-17T10:14:10.841Z,23.40
2022-10-17T10:16:42.469Z,23.63
2022-10-17T10:19:19.984Z,22.38
2022-10-17T10:21:57.047Z,23.67
2022-10-17T10:24:30.435Z,21.63
2022-10-17T10:27:02.077Z,21.75
2022-10-17T10:29:36.671Z,20.90
2022-10-17T10:32:09.344Z,17.25
2022-10-17T10:34:37.160Z,21.85
2022-10-17T10:37:03.581Z,20.15
2022-10-17T10:39:38.955Z,24.75
2022-10-17T10:42:07.380Z,22.77
2022-10-17T10:44:35.634Z,19.98
2022-10-17T10:47:17.380Z,16.45
2022-10-17T10:49:44.287Z,18.27
2022-10-17T10:52:15.074Z,19.30
2022-10-17T10:54:46.287Z,19.95
2022-10-17T10:57:19.883Z,17.90
2022-10-17T10:59:56.658Z,19.50
2022-10-17T11:02:30.346Z,13.88
2022-10-17T11:05:15.593Z,16.65
2022-10-17T11:07:47.553Z,15.88
2022-10-17T11:10:21.649Z,19.67
2022-10-17T11:12:56.395Z,15.98
2022-10-17T11:15:37.264Z,15.77
2022-10-17T11:18:32.805Z,17.35
2022-10-17T11:21:03.530Z,16.58
2022-10-17T11:23:51.508Z,12.82
2022-10-17T11:26:25.975Z,12.95
2022-10-17T11:28:53.673Z,12.40
2022-10-17T11:31:21.385Z,16.77
2022-10-17T11:33:58.760Z,20.00
2022-10-17T11:36:30.717Z,12.70
2022-10-17T11:39:00.107Z,11.93
2022-10-17T11:41:39.704Z,13.65
2022-10-17T11:44:20.369Z,14.75
2022-10-17T11:46:50.170Z,11.70
2022-10-17T11:49:20.789Z,12.32
2022-10-17T11:52:31.614Z,11.50
2022-10-17T11:55:11.280Z,10.75
2022-10-17T11:57:43.817Z,10.65
2022-10-17T12:00:19.500Z,11.73
2022-10-17T12:02:45.949Z,11.23
2022-10-17T12:05:12.370Z,11.43
2022-10-17T12:07:59.125Z,11.38
2022-10-17T12:10:35.711Z,11.95
2022-10-17T12:13:20.938Z,13.68
2022-10-17T12:15:47.436Z,13.40
2022-10-17T12:18:17.313Z,13.10
2022-10-17T12:20:43.872Z,14.82
2022-10-17T12:23:10.371Z,12.98
2022-10-17T12:25:47.304Z,10.85
2022-10-17T12:28:26.064Z,9.73
2022-10-17T12:30:56.995Z,11.52
2022-10-17T12:33:32.684Z,16.05
2022-10-17T12:36:17.228Z,14.05
2022-10-17T12:38:47.751Z,13.70
2022-10-17T12:41:15.930Z,14.10
2022-10-17T12:43:52.955Z,19.92
2022-10-17T12:46:38.121Z,14.32
2022-10-17T12:49:04.907Z,13.57
2022-10-17T12:51:51.294Z,14.65
2022-10-17T12:54:17.813Z,11.45
2022-10-17T12:56:48.706Z,14.98
2022-10-17T12:59:21.033Z,14.10
2022-10-17T13:01:49.584Z,12.55
2022-10-17T13:04:16.789Z,14.55
2022-10-17T13:06:48.106Z,11.32
2022-10-17T13:09:40.647Z,10.60
2022-10-17T13:12:11.889Z,10.15
2022-10-17T13:14:40.347Z,11.25
2022-10-17T13:17:07.486Z,15.07
2022-10-17T13:19:39.830Z,11.45
2022-10-17T13:22:25.580Z,10.25
2022-10-17T13:24:53.110Z,12.43
2022-10-17T13:27:28.135Z,10.68
2022-10-17T13:29:56.307Z,10.02
2022-10-17T13:32:23.402Z,11.88
2022-10-17T13:35:05.101Z,11.87
2022-10-17T13:37:31.799Z,11.00
2022-10-17T13:40:06.236Z,11.27
2022-10-17T13:42:39.988Z,14.70
2022-10-17T13:45:22.188Z,10.65
2022-10-17T13:47:48.982Z,12.48
2022-10-17T13:50:43.219Z,10.40
2022-10-17T13:53:26.184Z,13.38
2022-10-17T13:56:09.378Z,11.77
2022-10-17T13:58:43.352Z,11.48
2022-10-17T14:01:12.013Z,12.10
2022-10-17T14:03:48.202Z,11.13
2022-10-17T14:06:17.197Z,14.38
2022-10-17T14:09:03.912Z,15.68
2022-10-17T14:11:32.766Z,11.07
2022-10-17T14:13:59.676Z,13.43
2022-10-17T14:16:27.006Z,13.00
2022-10-17T14:18:53.705Z,11.00
2022-10-17T14:24:26.662Z,12.45
2022-10-17T14:26:54.683Z,14.23
2022-10-17T14:31:50.545Z,11.57
2022-10-17T14:34:22.010Z,11.00
2022-10-17T14:36:50.467Z,11.35
2022-10-17T14:39:22.005Z,10.70
2022-10-17T14:41:49.132Z,11.68
2022-10-17T14:44:18.520Z,12.30
2022-10-17T14:46:49.718Z,10.80
2022-10-17T14:49:24.355Z,16.60
2022-10-17T14:52:13.400Z,16.65
2022-10-17T14:54:44.411Z,10.93
2022-10-17T14:57:23.543Z,12.98
2022-10-17T14:59:54.718Z,11.20
2022-10-17T15:02:22.172Z,12.05
2022-10-17T15:04:48.638Z,14.32
2022-10-17T15:07:16.169Z,9.63
2022-10-17T15:09:43.267Z,13.75
2022-10-17T15:12:19.875Z,9.53
2022-10-17T15:14:48.433Z,12.32
2022-10-17T15:17:20.511Z,9.20
2022-10-17T15:19:47.698Z,16.13
2022-10-17T15:22:16.131Z,10.45
2022-10-17T15:24:42.686Z,8.88
2022-10-17T15:27:22.439Z,12.38
2022-10-17T15:29:49.178Z,13.75
2022-10-17T15:32:16.052Z,11.88
2022-10-17T15:34:42.546Z,10.05
2022-10-17T15:37:15.204Z,8.35
2022-10-17T15:39:41.694Z,13.73
2022-10-17T15:42:11.956Z,12.57
2022-10-17T15:44:38.458Z,12.93
2022-10-17T15:47:05.375Z,10.93
2022-10-17T15:49:31.797Z,9.73
2022-10-17T15:51:58.269Z,12.02
2022-10-17T15:54:24.721Z,12.68
2022-10-17T15:56:54.020Z,9.82
2022-10-17T15:59:22.712Z,9.93
2022-10-17T16:01:49.328Z,11.43
2022-10-17T16:04:15.978Z,10.85
2022-10-17T16:06:42.728Z,10.88
2022-10-17T16:09:09.208Z,13.05
2022-10-17T16:11:42.603Z,16.05
2022-10-17T16:14:13.285Z,13.40
2022-10-17T16:16:39.761Z,13.40
2022-10-17T16:19:06.558Z,12.65
2022-10-17T16:21:34.013Z,13.52
2022-10-17T16:24:00.657Z,13.63
2022-10-17T16:26:27.465Z,16.95
2022-10-17T16:28:55.185Z,19.70
2022-10-17T16:31:23.196Z,38.25
2022-10-17T16:33:50.345Z,33.30
2022-10-17T16:36:17.165Z,32.42
2022-10-17T16:38:43.872Z,30.52
2022-10-17T16:41:15.693Z,21.73
2022-10-17T16:43:42.112Z,18.08
2022-10-17T16:46:08.585Z,15.45
2022-10-17T16:48:35.073Z,15.13
2022-10-17T16:51:02.231Z,18.13
2022-10-17T16:53:28.713Z,14.82
2022-10-17T16:56:01.858Z,14.35
2022-10-17T16:58:30.743Z,16.80
2022-10-17T17:01:00.739Z,17.65
2022-10-17T17:03:27.332Z,16.92
2022-10-17T17:05:53.806Z,14.75
2022-10-17T17:08:20.349Z,13.55
2022-10-17T17:10:47.359Z,12.82
2022-10-17T17:13:13.871Z,12.98
2022-10-17T17:15:40.389Z,12.65
2022-10-17T17:18:07.177Z,17.52
2022-10-17T17:20:33.848Z,16.85
2022-10-17T17:23:00.311Z,17.38
2022-10-17T17:25:26.893Z,19.15
2022-10-17T17:27:53.357Z,17.48
2022-10-17T17:30:19.823Z,20.75
2022-10-17T17:32:46.294Z,19.63
2022-10-17T17:35:12.813Z,25.30
2022-10-17T17:37:39.314Z,23.10
2022-10-17T17:40:06.175Z,29.17
2022-10-17T17:42:32.932Z,27.35
2022-10-17T17:44:59.731Z,24.77
2022-10-17T17:47:28.540Z,21.83
2022-10-17T17:49:55.486Z,24.20
2022-10-17T17:52:22.246Z,25.80
2022-10-17T17:54:48.714Z,28.13
2022-10-17T17:57:15.156Z,26.27
2022-10-17T17:59:42.407Z,25.13
2022-10-17T18:02:10.236Z,25.50
2022-10-17T18:04:36.741Z,23.20
2022-10-17T18:07:03.194Z,24.70
2022-10-17T18:09:29.641Z,21.88
2022-10-17T18:11:56.113Z,23.00
2022-10-17T18:14:25.598Z,22.10
2022-10-17T18:16:52.121Z,16.70
2022-10-17T18:19:18.802Z,20.52
2022-10-17T18:21:45.390Z,21.63
2022-10-17T18:24:11.900Z,18.95
2022-10-17T18:26:38.424Z,21.25
2022-10-17T18:29:04.993Z,16.52
2022-10-17T18:31:36.185Z,15.60
2022-10-17T18:34:03.549Z,17.77
2022-10-17T18:36:32.184Z,18.33
2022-10-17T18:38:59.241Z,14.50
2022-10-17T18:41:26.380Z,17.40
2022-10-17T18:43:53.770Z,19.35
2022-10-17T18:46:25.165Z,22.43
2022-10-17T18:48:51.845Z,22.25
2022-10-17T18:51:19.896Z,15.57
2022-10-17T18:53:48.765Z,19.20
2022-10-17T18:56:15.499Z,17.92
2022-10-17T18:58:42.022Z,14.80
2022-10-17T19:01:15.415Z,16.98
2022-10-17T19:03:42.677Z,20.38
2022-10-17T19:06:09.589Z,16.65
2022-10-17T19:08:36.526Z,18.70
2022-10-17T19:11:09.881Z,15.40
2022-10-17T19:13:36.834Z,19.52
2022-10-17T19:16:07.459Z,19.42
2022-10-17T19:18:34.363Z,15.13
2022-10-17T19:21:02.240Z,19.38
2022-10-17T19:23:30.476Z,18.75
2022-10-17T19:26:04.398Z,19.10
2022-10-17T19:28:31.642Z,17.85
2022-10-17T19:30:58.386Z,20.15
2022-10-17T19:33:24.948Z,17.95
2022-10-17T19:35:58.285Z,19.67
2022-10-17T19:38:25.429Z,18.52
2022-10-17T19:40:52.212Z,20.90
2022-10-17T19:43:19.618Z,18.30
2022-10-17T19:45:59.966Z,23.00
2022-10-17T19:48:27.202Z,18.25
2022-10-17T19:50:54.073Z,20.20
2022-10-17T19:53:22.350Z,20.42
2022-10-17T19:55:49.132Z,19.63
2022-10-17T19:58:17.158Z,21.60
2022-10-17T20:00:50.802Z,22.40
2022-10-17T20:03:17.674Z,20.85
2022-10-17T20:05:44.397Z,22.17
2022-10-17T20:08:11.018Z,20.33
2022-10-17T20:10:37.768Z,20.13
2022-10-17T20:13:04.905Z,18.42
2022-10-17T20:15:31.778Z,21.25
2022-10-17T20:17:58.496Z,23.00
2022-10-17T20:20:25.423Z,19.65
2022-10-17T20:22:52.125Z,21.15
2022-10-17T20:25:19.119Z,18.40
2022-10-17T20:27:46.178Z,17.35
2022-10-17T20:30:12.807Z,17.17
2022-10-17T20:32:39.763Z,22.63
